Etowah, TN (37331)

9:25 AM EST on February 11, 2016 (GMT -0500)
Etowah Utilities | | Change Station
CLOSE
Current Station
Personal Weather Station
Location: Etowah, TN
Elevation: 791 ft
Nearby Weather Stations

Elev 791 ft 35.32 °N, 84.53 °W | Updated 4 minutes ago

Overcast
Overcast
30.7 °F
Feels Like 31 °F
N
2.7
Wind Variable Wind from NE
Gusts 4.9 mph

Today
High -- | Low -- °F
--% Chance of Precip.
Yesterday
High -- | Low -- °F
Precip. -- in
Pressure 30.24 in
Visibility 10.0 miles
Clouds Overcast 5500 ft
Windchill 31 °F
Dew Point 20 °F
Humidity 64%
Rainfall 0.00 in
Snow Depth Not available.
7:29 AM 6:16 PM
Waxing Crescent, 12% visible
METAR KMMI 111415Z AUTO 03004KT 10SM OVC055 M03/M08 A3024 RMK
Pressure 30.24 in
Visibility 10.0 miles
Clouds Overcast 5500 ft
Windchill 31 °F
Dew Point 20 °F
Humidity 64%
Rainfall 0.00 in
Snow Depth Not available.
7:29 AM 6:16 PM
Waxing Crescent, 12% visible
METAR KMMI 111415Z AUTO 03004KT 10SM OVC055 M03/M08 A3024 RMK

10-Day Weather Forecast

Almanac

Astronomy

Feb. 11, 2016 Rise Set
Actual Time
Civil Twilight
Nautical Twilight
Astronomical Twilight
Moon
Length of Visible Light
Length of Day
Tomorrow will be .
, % of the Moon is Illuminated

Today's Extremes

State Highs State Lows

Community

WunderPhotos

Upload Photos

1,892,048 photos uploaded!

WunderBlog® & News

Nearby

Air Quality

  Air Quality AQ Index Pollutant
Not available.

Snow Depth

Station Depth Elevation

Earthquake Activity

City Distance Mag. Time & Date
Minimum magnitude displayed is 2.5.

Coastal Water Temperatures

Place Temperature

Stations

Nearby Weather Stations

Station Location Temp. Windchill Dew Point Humidity Wind Precip. Elev Updated Type
                   

Watches & Warnings

There are currently no watches in effect.